Nearby METAR Reports

 

KSJC - San Jose, California, USA
Distance from station: NO 14km
Uppdaterad: 2019-05-27 12:10
Genommulet
Genommulet
 Vind från calm
Vind: Vindstilla
Temperatur: 12°C
Daggpunkt: 11°C
Luftfuktighet: 94%
Barometer: 1015.9 hPa
Clouds: Genommulet
Visibility: 16 km
Cloud details: Genommulet 884 m
2019/05/27 10:10 KSJC 271010Z AUTO 00000KT 10SM OVC029 12/11 A3000 RMK AO2 T01170106
KNUQ - Moffett Nas/Mtn, California, USA
Distance from station: N 14km
Uppdaterad: 2019-05-27 11:56
Delvis molnigt
Delvis molnigt
 Vind från VSV
Vind: VSV 6 km/h
Temperatur: 12°C
Daggpunkt: 8°C
Luftfuktighet: 77%
Barometer: 1016.6 hPa
Clouds: Delvis molnigt
Visibility: 16 km
Cloud details: Delvis molnigt 1036 m
2019/05/27 09:56 KNUQ 270956Z AUTO 24003KT 10SM SCT034 12/08 A3002 RMK AO2 SLP166 T01220078
 
KPAO - Palo Alto, California, USA
Distance from station: NNV 23km
Uppdaterad: 2019-05-27 05:47
NOT Current
Genommulet
Genommulet
 Vind från V
Vind: V 9 km/h
Temperatur: 12°C
Daggpunkt: 8°C
Luftfuktighet: 77%
Barometer: 1014.9 hPa
Clouds: Genommulet
Visibility: 16 km
Cloud details: Övervägande molnigt 823 m
Genommulet 1524 m
2019/05/27 03:47 KPAO 270347Z 26005KT 10SM BKN027 OVC050 12/08 A2997 RMK LAST
KRHV - San Jose/Reid, California, USA
Distance from station: ONO 19km
Uppdaterad: 2019-05-27 02:50
NOT Current
Genommulet
Genommulet
 Vind från NV
Vind: NV 17 km/h
Temperatur: 13°C
Daggpunkt: 8°C
Luftfuktighet: 72%
Barometer: 1013.9 hPa
Clouds: Genommulet
Visibility: 16 km
Cloud details: Few Clouds 762 m
Övervägande molnigt 1372 m
Genommulet 3048 m
2019/05/27 00:50 KRHV 270050Z 32009KT 10SM FEW025 BKN045 OVC100 13/08 A2994
 
KOAK - Oakland, California, USA
Distance from station: NNV 50km
Uppdaterad: 2019-05-27 11:53
Delvis molnigt
Delvis molnigt
 Vind från calm
Vind: Vindstilla
Temperatur: 12°C
Daggpunkt: 9°C
Luftfuktighet: 82%
Barometer: 1016.3 hPa
Clouds: Delvis molnigt
Visibility: 16 km
Cloud details: Delvis molnigt 427 m
2019/05/27 09:53 KOAK 270953Z 00000KT 10SM SCT014 12/09 A3001 RMK AO2 SLP160 T01170089
KSQL - San Carlos Airpo, California, USA
Distance from station: NV 34km
Uppdaterad: 2019-05-27 05:47
NOT Current
Lätt regn, Övervägande molnigt
Lätt regn, Övervägande molnigt
 Vind från V
Vind: V 9 km/h
Temperatur: 12°C
Daggpunkt: 10°C
Luftfuktighet: 88%
Barometer: 1014.9 hPa
Summering: Lätt regn
Clouds: Övervägande molnigt
Visibility: 8 km
Cloud details: Few Clouds 152 m
Övervägande molnigt 610 m
2019/05/27 03:47 KSQL 270347Z 27005KT 5SM -RA FEW005 BKN020 12/10 A2997 RMK LAST
 
KSFO - San Francisco, California, USA
Distance from station: NV 49km
Uppdaterad: 2019-05-27 11:56
Övervägande molnigt
Övervägande molnigt
 Vind från VSV
Vind: VSV 15 km/h
Temperatur: 13°C
Daggpunkt: 8°C
Luftfuktighet: 72%
Barometer: 1015.9 hPa
Clouds: Övervägande molnigt
Visibility: 11 km
Cloud details: Övervägande molnigt 366 m
2019/05/27 09:56 KSFO 270956Z 24008KT 7SM BKN012 13/08 A3000 RMK AO2 SLP159 T01280083 $
KE16 - San Martin, California, USA
Distance from station: OSO 43km
Uppdaterad: 2019-05-19 19:45
NOT Current
Delvis molnigt
Delvis molnigt
 Vind från SO
Vind: SO 17 km/h
Temperatur: 12°C
Daggpunkt: 10°C
Luftfuktighet: 88%
Barometer: 1010.2 hPa
Clouds: Delvis molnigt
Visibility: 16 km
Cloud details: Few Clouds 1463 m
Delvis molnigt 1676 m
2019/05/19 17:45 KE16 191745Z AUTO 13009KT 10SM FEW048 SCT055 12/10 A2983 RMK AO2
 
KWVI - Watsonville, California, USA
Distance from station: SSO 44km
Uppdaterad: 2019-05-27 11:53
Övervägande molnigt
Övervägande molnigt
 Vind från NNV
Vind: NNV 6 km/h
Temperatur: 9°C
Daggpunkt: 8°C
Luftfuktighet: 94%
Barometer: 1016.6 hPa
Clouds: Övervägande molnigt
Visibility: 16 km
Cloud details: Övervägande molnigt 1189 m
2019/05/27 09:53 KWVI 270953Z AUTO 34003KT 10SM BKN039 09/08 A3002 RMK AO2 SLP165 T00890078
KHAF - Half Moon Bay, California, USA
Distance from station: VNV 50km
Uppdaterad: 2019-05-27 12:20
Genommulet
Genommulet
 Vind från NV
Vind: NV 15 km/h
Temperatur: 11°C
Daggpunkt: 9°C
Luftfuktighet: 88%
Barometer: 1016.6 hPa
Clouds: Genommulet
Visibility: 11 km
Cloud details: Genommulet 305 m
2019/05/27 10:20 KHAF 271020Z AUTO 32008KT 7SM OVC010 11/09 A3002 RMK AO2
 
KHWD - Hayward, California, USA
Distance from station: N 44km
Uppdaterad: 2019-05-27 11:54
Delvis molnigt
Delvis molnigt
 Vind från SSV
Vind: SSV 7 km/h
Temperatur: 12°C
Daggpunkt: 8°C
Luftfuktighet: 77%
Barometer: 1015.9 hPa
Clouds: Delvis molnigt
Visibility: 16 km
Cloud details: Few Clouds 488 m
Delvis molnigt 823 m
2019/05/27 09:54 KHWD 270954Z AUTO 21004KT 10SM FEW016 SCT027 12/08 A3000 RMK AO2 SLP168 T01170083
KLVK - Livermore, California, USA
Distance from station: NNO 51km
Uppdaterad: 2019-05-27 12:11
Övervägande molnigt
Övervägande molnigt
 Vind från calm
Vind: Vindstilla
Temperatur: 10°C
Daggpunkt: 8°C
Luftfuktighet: 88%
Barometer: 1015.6 hPa
Clouds: Övervägande molnigt
Visibility: 16 km
Cloud details: Övervägande molnigt 762 m
Övervägande molnigt 3658 m
2019/05/27 10:11 KLVK 271011Z AUTO 00000KT 10SM BKN025 BKN120 10/08 A2999 RMK AO2 T01000078